createdAt,value
2018-09-19T00:01:39.572Z,100484.07
2018-09-19T00:04:08.088Z,100491.59
2018-09-19T00:06:36.568Z,100487.50
2018-09-19T00:09:07.392Z,100491.75
2018-09-19T00:11:36.813Z,100498.64
2018-09-19T00:14:05.439Z,100497.06
2018-09-19T00:16:33.931Z,100490.52
2018-09-19T00:19:02.511Z,100484.08
2018-09-19T00:21:31.063Z,100488.91
2018-09-19T00:24:00.607Z,100485.28
2018-09-19T00:26:29.027Z,100496.02
2018-09-19T00:28:57.512Z,100484.27
2018-09-19T00:31:25.908Z,100492.05
2018-09-19T00:33:54.883Z,100496.95
2018-09-19T00:36:23.973Z,100490.22
2018-09-19T00:38:52.472Z,100490.38
2018-09-19T00:41:21.001Z,100494.02
2018-09-19T00:43:49.494Z,100504.23
2018-09-19T00:46:17.987Z,100497.92
2018-09-19T00:48:46.696Z,100504.32
2018-09-19T00:51:15.234Z,100503.70
2018-09-19T00:53:44.108Z,100510.06
2018-09-19T00:56:12.741Z,100504.52
2018-09-19T00:58:41.580Z,100513.25
2018-09-19T01:01:10.452Z,100518.45
2018-09-19T01:03:38.876Z,100518.45
2018-09-19T01:06:07.399Z,100523.17
2018-09-19T01:08:36.317Z,100524.41
2018-09-19T01:11:04.834Z,100528.44
2018-09-19T01:13:34.560Z,100531.20
2018-09-19T01:16:03.182Z,100534.63
2018-09-19T01:18:31.987Z,100530.68
2018-09-19T01:21:00.801Z,100529.92
2018-09-19T01:23:29.291Z,100530.16
2018-09-19T01:25:57.769Z,100539.00
2018-09-19T01:28:27.172Z,100537.44
2018-09-19T01:30:55.976Z,100536.08
2018-09-19T01:33:25.131Z,100533.84
2018-09-19T01:35:53.808Z,100535.97
2018-09-19T01:38:22.317Z,100534.14
2018-09-19T01:40:50.980Z,100533.97
2018-09-19T01:43:19.614Z,100538.18
2018-09-19T01:45:48.657Z,100536.42
2018-09-19T01:48:17.140Z,100543.19
2018-09-19T01:50:45.644Z,100543.78
2018-09-19T01:53:14.157Z,100543.34
2018-09-19T01:55:42.642Z,100544.52
2018-09-19T01:58:11.282Z,100549.36
2018-09-19T02:00:39.803Z,100542.48
2018-09-19T02:03:08.338Z,100546.28
2018-09-19T02:05:37.153Z,100536.84
2018-09-19T02:08:05.936Z,100544.58
2018-09-19T02:10:34.343Z,100535.34
2018-09-19T02:13:03.729Z,100535.73
2018-09-19T02:15:32.348Z,100538.34
2018-09-19T02:18:00.877Z,100540.20
2018-09-19T02:20:30.008Z,100541.80
2018-09-19T02:22:58.503Z,100543.50
2018-09-19T02:25:26.945Z,100550.15
2018-09-19T02:27:55.498Z,100550.57
2018-09-19T02:30:23.931Z,100546.63
2018-09-19T02:32:52.618Z,100554.52
2018-09-19T02:35:21.125Z,100563.97
2018-09-19T02:37:50.530Z,100558.66
2018-09-19T02:40:19.213Z,100563.27
2018-09-19T02:42:47.726Z,100564.05
2018-09-19T02:45:16.171Z,100557.72
2018-09-19T02:47:45.241Z,100563.16
2018-09-19T02:50:14.206Z,100570.49
2018-09-19T02:52:42.661Z,100569.56
2018-09-19T02:55:11.141Z,100575.25
2018-09-19T02:57:39.621Z,100575.00
2018-09-19T03:00:08.071Z,100576.09
2018-09-19T03:02:36.498Z,100575.78
2018-09-19T03:05:04.930Z,100577.07
2018-09-19T03:07:33.292Z,100586.05
2018-09-19T03:10:01.703Z,100580.94
2018-09-19T03:12:30.266Z,100584.50
2018-09-19T03:14:58.656Z,100590.91
2018-09-19T03:17:27.143Z,100585.68
2018-09-19T03:19:55.682Z,100585.34
2018-09-19T03:22:24.180Z,100585.87
2018-09-19T03:24:52.704Z,100594.52
2018-09-19T03:27:21.351Z,100593.89
2018-09-19T03:29:49.944Z,100593.48
2018-09-19T03:32:18.461Z,100588.77
2018-09-19T03:34:47.340Z,100597.77
2018-09-19T03:37:15.901Z,100591.81
2018-09-19T03:39:44.472Z,100596.39
2018-09-19T03:42:12.943Z,100603.17
2018-09-19T03:44:41.484Z,100598.11
2018-09-19T03:47:10.102Z,100602.45
2018-09-19T03:49:38.555Z,100597.84
2018-09-19T03:52:07.063Z,100600.16
2018-09-19T03:54:35.567Z,100593.70
2018-09-19T03:57:04.040Z,100601.19
2018-09-19T03:59:32.512Z,100598.20
2018-09-19T04:02:00.904Z,100602.20
2018-09-19T04:04:29.990Z,100603.60
2018-09-19T04:06:58.364Z,100602.87
2018-09-19T04:09:26.847Z,100604.17
2018-09-19T04:11:55.404Z,100598.45
2018-09-19T04:14:23.947Z,100599.74
2018-09-19T04:16:52.518Z,100608.03
2018-09-19T04:19:20.985Z,100606.56
2018-09-19T04:21:53.398Z,100615.59
2018-09-19T04:24:21.874Z,100621.09
2018-09-19T04:26:50.546Z,100628.41
2018-09-19T04:29:19.744Z,100621.59
2018-09-19T04:31:48.796Z,100628.01
2018-09-19T04:34:17.688Z,100630.21
2018-09-19T04:36:46.400Z,100630.27
2018-09-19T04:39:15.062Z,100630.81
2018-09-19T04:41:43.761Z,100633.80
2018-09-19T04:44:12.344Z,100628.31
2018-09-19T04:46:40.929Z,100633.11
2018-09-19T04:49:11.041Z,100631.50
2018-09-19T04:51:40.613Z,100623.59
2018-09-19T04:54:09.420Z,100630.55
2018-09-19T04:56:38.519Z,100632.23
2018-09-19T04:59:07.244Z,100625.61
2018-09-19T05:01:35.788Z,100631.60
2018-09-19T05:04:05.441Z,100629.52
2018-09-19T05:06:34.315Z,100633.91
2018-09-19T05:09:03.062Z,100629.48
2018-09-19T05:11:31.803Z,100633.34
2018-09-19T05:14:00.370Z,100636.39
2018-09-19T05:16:28.829Z,100640.72
2018-09-19T05:18:57.376Z,100638.19
2018-09-19T05:21:26.834Z,100644.68
2018-09-19T05:23:56.012Z,100648.05
2018-09-19T05:26:24.629Z,100651.18
2018-09-19T05:28:53.076Z,100649.39
2018-09-19T05:31:21.751Z,100658.05
2018-09-19T05:33:50.253Z,100653.72
2018-09-19T05:36:18.665Z,100665.16
2018-09-19T05:38:47.354Z,100667.25
2018-09-19T05:41:16.266Z,100669.28
2018-09-19T05:43:45.067Z,100665.23
2018-09-19T05:46:13.579Z,100669.48
2018-09-19T05:48:42.978Z,100673.72
2018-09-19T05:51:11.809Z,100673.00
2018-09-19T05:53:40.443Z,100673.99
2018-09-19T05:56:09.066Z,100677.02
2018-09-19T05:58:37.691Z,100675.12
2018-09-19T06:01:06.353Z,100680.39
2018-09-19T06:03:34.960Z,100684.41
2018-09-19T06:06:04.302Z,100681.74
2018-09-19T06:08:32.947Z,100687.50
2018-09-19T06:11:01.652Z,100686.29
2018-09-19T06:13:30.151Z,100687.43
2018-09-19T06:15:58.858Z,100689.72
2018-09-19T06:18:27.417Z,100684.30
2018-09-19T06:20:55.987Z,100689.09
2018-09-19T06:23:24.474Z,100687.22
2018-09-19T06:25:53.084Z,100692.67
2018-09-19T06:28:21.552Z,100689.89
2018-09-19T06:30:50.012Z,100690.15
2018-09-19T06:33:19.323Z,100696.39
2018-09-19T06:35:48.277Z,100688.22
2018-09-19T06:38:17.414Z,100687.17
2018-09-19T06:40:45.930Z,100686.42
2018-09-19T06:43:15.203Z,100692.27
2018-09-19T06:45:43.861Z,100699.73
2018-09-19T06:48:13.406Z,100700.76
2018-09-19T06:50:41.964Z,100704.89
2018-09-19T06:53:10.516Z,100702.02
2018-09-19T06:55:39.018Z,100708.87
2018-09-19T06:58:07.537Z,100705.84
2018-09-19T07:00:36.094Z,100705.20
2018-09-19T07:03:04.775Z,100708.57
2018-09-19T07:05:33.385Z,100714.60
2018-09-19T07:08:01.944Z,100710.02
2018-09-19T07:10:31.140Z,100710.94
2018-09-19T07:12:59.669Z,100710.41
2018-09-19T07:15:28.279Z,100713.38
2018-09-19T07:17:56.916Z,100710.51
2018-09-19T07:20:25.544Z,100718.58
2018-09-19T07:22:54.159Z,100720.53
2018-09-19T07:25:22.899Z,100714.34
2018-09-19T07:27:52.227Z,100715.09
2018-09-19T07:30:21.557Z,100718.05
2018-09-19T07:32:50.108Z,100718.26
2018-09-19T07:35:18.738Z,100721.78
2018-09-19T07:37:47.294Z,100722.82
2018-09-19T07:40:16.010Z,100722.51
2018-09-19T07:42:44.622Z,100727.59
2018-09-19T07:45:13.219Z,100727.16
2018-09-19T07:47:41.696Z,100728.64
2018-09-19T07:50:10.310Z,100733.13
2018-09-19T07:52:39.111Z,100739.77
2018-09-19T07:55:07.864Z,100740.90
2018-09-19T07:57:36.929Z,100746.13
2018-09-19T08:00:05.681Z,100744.95
2018-09-19T08:02:34.212Z,100750.92
2018-09-19T08:05:02.733Z,100748.70
2018-09-19T08:07:31.195Z,100747.78
2018-09-19T08:09:59.675Z,100752.48
2018-09-19T08:12:28.337Z,100750.61
2018-09-19T08:14:57.064Z,100748.77
2018-09-19T08:17:25.613Z,100747.62
2018-09-19T08:19:54.422Z,100745.94
2018-09-19T08:22:22.899Z,100739.74
2018-09-19T08:24:51.448Z,100734.70
2018-09-19T08:27:20.019Z,100730.23
2018-09-19T08:29:48.991Z,100734.17
2018-09-19T08:32:17.522Z,100732.45
2018-09-19T08:34:46.142Z,100733.55
2018-09-19T08:37:14.696Z,100729.71
2018-09-19T08:39:43.240Z,100725.34
2018-09-19T08:42:11.755Z,100731.69
2018-09-19T08:44:40.390Z,100730.38
2018-09-19T08:47:08.940Z,100734.10
2018-09-19T08:49:37.481Z,100733.42
2018-09-19T08:52:05.997Z,100726.59
2018-09-19T08:54:34.650Z,100720.74
2018-09-19T08:57:03.841Z,100713.89
2018-09-19T08:59:32.439Z,100710.60
2018-09-19T09:02:01.414Z,100714.20
2018-09-19T09:04:30.190Z,100713.61
2018-09-19T09:06:58.691Z,100716.81
2018-09-19T09:09:27.150Z,100725.82
2018-09-19T09:11:55.611Z,100729.20
2018-09-19T09:14:25.135Z,100723.34
2018-09-19T09:16:53.644Z,100720.55
2018-09-19T09:19:22.094Z,100727.17
2018-09-19T09:21:50.812Z,100720.24
2018-09-19T09:24:19.267Z,100720.17
2018-09-19T09:26:48.602Z,100714.86
2018-09-19T09:29:17.003Z,100715.17
2018-09-19T09:31:45.480Z,100715.20
2018-09-19T09:34:14.132Z,100709.70
2018-09-19T09:36:42.775Z,100711.39
2018-09-19T09:39:11.210Z,100710.30
2018-09-19T09:41:39.693Z,100704.44
2018-09-19T09:44:08.450Z,100702.48
2018-09-19T09:46:37.022Z,100702.30
2018-09-19T09:49:05.827Z,100700.75
2018-09-19T09:51:34.305Z,100698.26
2018-09-19T09:54:02.868Z,100693.41
2018-09-19T09:56:31.412Z,100701.16
2018-09-19T09:58:59.980Z,100696.73
2018-09-19T10:01:28.691Z,100695.42
2018-09-19T10:03:57.129Z,100696.12
2018-09-19T10:06:25.804Z,100689.80
2018-09-19T10:08:54.525Z,100689.25
2018-09-19T10:11:23.017Z,100693.45
2018-09-19T10:13:51.489Z,100685.55
2018-09-19T10:16:20.327Z,100682.14
2018-09-19T10:18:48.809Z,100682.98
2018-09-19T10:21:17.268Z,100679.16
2018-09-19T10:23:45.858Z,100674.98
2018-09-19T10:26:14.374Z,100668.44
2018-09-19T10:28:42.904Z,100665.42
2018-09-19T10:31:11.442Z,100661.26
2018-09-19T10:33:40.071Z,100652.67
2018-09-19T10:36:08.622Z,100648.00
2018-09-19T10:38:37.172Z,100653.47
2018-09-19T10:41:05.695Z,100654.30
2018-09-19T10:43:34.157Z,100652.27
2018-09-19T10:46:02.907Z,100651.45
2018-09-19T10:48:31.424Z,100648.93
2018-09-19T10:50:59.937Z,100644.23
2018-09-19T10:53:28.371Z,100644.87
2018-09-19T10:55:56.949Z,100629.89
2018-09-19T10:58:25.480Z,100620.48
2018-09-19T11:00:53.930Z,100616.25
2018-09-19T11:03:22.399Z,100616.97
2018-09-19T11:05:50.909Z,100615.06
2018-09-19T11:08:20.519Z,100614.92
2018-09-19T11:10:49.343Z,100617.61
2018-09-19T11:13:18.186Z,100617.38
2018-09-19T11:15:46.863Z,100617.88
2018-09-19T11:18:15.501Z,100622.74
2018-09-19T11:20:44.106Z,100607.82
2018-09-19T11:23:12.951Z,100601.16
2018-09-19T11:25:41.780Z,100600.51
2018-09-19T11:28:10.909Z,100592.45
2018-09-19T11:30:39.676Z,100591.97
2018-09-19T11:33:08.191Z,100588.08
2018-09-19T11:35:37.050Z,100585.54
2018-09-19T11:38:05.831Z,100577.88
2018-09-19T11:40:34.479Z,100579.29
2018-09-19T11:43:03.163Z,100578.80
2018-09-19T11:45:31.772Z,100581.03
2018-09-19T11:48:00.490Z,100583.58
2018-09-19T11:50:28.990Z,100584.80
2018-09-19T11:52:57.868Z,100581.13
2018-09-19T11:55:26.578Z,100583.17
2018-09-19T11:57:55.878Z,100575.07
2018-09-19T12:00:24.549Z,100575.56
2018-09-19T12:02:53.336Z,100571.22
2018-09-19T12:05:22.223Z,100573.73
2018-09-19T12:07:50.949Z,100565.52
2018-09-19T12:10:19.689Z,100556.69
2018-09-19T12:12:48.380Z,100537.28
2018-09-19T12:15:17.242Z,100537.03
2018-09-19T12:17:45.933Z,100524.91
2018-09-19T12:20:14.712Z,100530.03
2018-09-19T12:22:44.086Z,100527.94
2018-09-19T12:25:12.846Z,100533.30
2018-09-19T12:27:41.942Z,100531.56
2018-09-19T12:30:10.916Z,100542.10
2018-09-19T12:32:39.578Z,100534.90
2018-09-19T12:35:08.303Z,100530.75
2018-09-19T12:37:37.148Z,100525.69
2018-09-19T12:40:06.547Z,100525.25
2018-09-19T12:42:35.124Z,100525.20
2018-09-19T12:45:04.540Z,100527.00
2018-09-19T12:47:33.210Z,100526.02
2018-09-19T12:50:01.837Z,100525.39
2018-09-19T12:52:30.606Z,100519.36
2018-09-19T12:54:59.213Z,100525.76
2018-09-19T12:57:28.506Z,100524.64
2018-09-19T12:59:57.818Z,100528.63
2018-09-19T13:02:26.479Z,100529.34
2018-09-19T13:04:55.140Z,100529.27
2018-09-19T13:07:23.923Z,100516.80
2018-09-19T13:09:52.733Z,100525.63
2018-09-19T13:12:21.452Z,100520.75
2018-09-19T13:14:51.152Z,100524.93
2018-09-19T13:17:21.777Z,100524.70
2018-09-19T13:19:50.640Z,100517.79
2018-09-19T13:22:19.263Z,100516.20
2018-09-19T13:24:48.125Z,100511.20
2018-09-19T13:27:17.642Z,100510.66
2018-09-19T13:29:46.299Z,100505.23
2018-09-19T13:32:15.084Z,100503.31
2018-09-19T13:34:44.571Z,100493.82
2018-09-19T13:37:13.359Z,100501.70
2018-09-19T13:39:42.154Z,100493.47
2018-09-19T13:42:10.841Z,100499.42
2018-09-19T13:44:39.626Z,100493.53
2018-09-19T13:47:08.414Z,100494.13
2018-09-19T13:49:45.203Z,100492.84
2018-09-19T13:52:13.817Z,100494.59
2018-09-19T13:54:42.498Z,100489.84
2018-09-19T13:57:11.184Z,100496.66
2018-09-19T13:59:39.825Z,100491.98
2018-09-19T14:02:08.608Z,100494.98
2018-09-19T14:04:37.221Z,100496.43
2018-09-19T14:07:05.921Z,100494.16
2018-09-19T14:09:34.696Z,100487.78
2018-09-19T14:12:04.039Z,100491.68
2018-09-19T14:14:32.912Z,100488.53
2018-09-19T14:17:01.601Z,100492.77
2018-09-19T14:19:30.139Z,100488.27
2018-09-19T14:21:58.673Z,100487.51
2018-09-19T14:24:27.238Z,100486.45
2018-09-19T14:26:56.502Z,100484.52
2018-09-19T14:29:25.712Z,100487.30
2018-09-19T14:31:54.236Z,100487.77
2018-09-19T14:34:22.847Z,100473.57
2018-09-19T14:36:51.412Z,100469.86
2018-09-19T14:39:20.017Z,100464.23
2018-09-19T14:41:48.674Z,100461.86
2018-09-19T14:44:17.501Z,100459.79
2018-09-19T14:46:46.225Z,100457.45
2018-09-19T14:49:14.840Z,100459.30
2018-09-19T14:51:43.538Z,100457.30
2018-09-19T14:54:13.520Z,100455.70
2018-09-19T14:56:42.033Z,100444.63
2018-09-19T14:59:10.728Z,100452.36
2018-09-19T15:01:39.999Z,100451.04
2018-09-19T15:04:08.693Z,100448.84
2018-09-19T15:06:37.341Z,100442.12
2018-09-19T15:09:08.954Z,100447.72
2018-09-19T15:11:37.561Z,100444.67
2018-09-19T15:14:06.301Z,100444.33
2018-09-19T15:16:35.516Z,100437.12
2018-09-19T15:19:04.134Z,100440.37
2018-09-19T15:21:32.916Z,100439.06
2018-09-19T15:24:02.156Z,100435.64
2018-09-19T15:26:30.676Z,100434.58
2018-09-19T15:28:59.350Z,100437.48
2018-09-19T15:31:28.901Z,100432.48
2018-09-19T15:33:57.579Z,100431.91
2018-09-19T15:36:26.402Z,100429.31
2018-09-19T15:38:54.898Z,100428.00
2018-09-19T15:41:23.423Z,100430.30
2018-09-19T15:43:52.902Z,100432.23
2018-09-19T15:46:22.608Z,100434.53
2018-09-19T15:48:52.871Z,100437.16
2018-09-19T15:51:22.521Z,100438.47
2018-09-19T15:53:53.585Z,100435.07
2018-09-19T15:56:23.219Z,100435.95
2018-09-19T15:58:52.799Z,100440.34
2018-09-19T16:01:22.615Z,100431.52
2018-09-19T16:03:52.928Z,100430.98
2018-09-19T16:06:22.428Z,100434.84
2018-09-19T16:08:51.110Z,100433.39
2018-09-19T16:11:20.010Z,100432.20
2018-09-19T16:13:48.811Z,100434.83
2018-09-19T16:16:18.062Z,100446.84
2018-09-19T16:18:47.639Z,100443.02
2018-09-19T16:21:18.557Z,100445.98
2018-09-19T16:23:49.350Z,100444.20
2018-09-19T16:26:20.896Z,100446.96
2018-09-19T16:28:49.815Z,100443.97
2018-09-19T16:31:18.685Z,100451.39
2018-09-19T16:33:49.858Z,100447.69
2018-09-19T16:36:19.597Z,100450.91
2018-09-19T16:38:53.532Z,100457.11
2018-09-19T16:41:22.885Z,100453.84
2018-09-19T16:43:52.201Z,100450.83
2018-09-19T16:46:23.356Z,100458.02
2018-09-19T16:48:52.243Z,100450.95
2018-09-19T16:51:30.172Z,100455.42
2018-09-19T16:54:02.286Z,100459.23
2018-09-19T16:56:33.900Z,100450.99
2018-09-19T16:59:04.961Z,100450.81
2018-09-19T17:01:34.055Z,100448.34
2018-09-19T17:04:05.648Z,100448.73
2018-09-19T17:06:40.577Z,100455.72
2018-09-19T17:09:13.403Z,100449.09
2018-09-19T17:11:43.881Z,100448.54
2018-09-19T17:14:13.135Z,100450.33
2018-09-19T17:16:42.444Z,100456.43
2018-09-19T17:19:12.173Z,100462.55
2018-09-19T17:21:42.873Z,100461.05
2018-09-19T17:24:12.299Z,100460.39
2018-09-19T17:26:41.476Z,100463.36
2018-09-19T17:29:10.570Z,100465.22
2018-09-19T17:31:39.492Z,100460.48
2018-09-19T17:34:08.378Z,100466.59
2018-09-19T17:36:37.203Z,100465.85
2018-09-19T17:39:09.449Z,100467.42
2018-09-19T17:41:38.749Z,100470.69
2018-09-19T17:44:07.710Z,100474.39
2018-09-19T17:46:38.124Z,100475.92
2018-09-19T17:49:08.351Z,100473.81
2018-09-19T17:51:37.578Z,100478.34
2018-09-19T17:54:07.456Z,100472.77
2018-09-19T17:56:37.157Z,100474.30
2018-09-19T17:59:06.873Z,100471.66
2018-09-19T18:01:36.600Z,100476.19
2018-09-19T18:04:06.484Z,100477.34
2018-09-19T18:06:35.393Z,100482.94
2018-09-19T18:09:05.211Z,100482.79
2018-09-19T18:11:34.179Z,100483.16
2018-09-19T18:14:02.881Z,100487.87
2018-09-19T18:16:32.710Z,100483.80
2018-09-19T18:19:01.330Z,100482.91
2018-09-19T18:21:30.052Z,100490.48
2018-09-19T18:23:59.403Z,100489.86
2018-09-19T18:26:28.542Z,100488.03
2018-09-19T18:28:57.391Z,100491.95
2018-09-19T18:31:27.284Z,100494.91
2018-09-19T18:33:56.300Z,100496.66
2018-09-19T18:36:25.152Z,100502.91
2018-09-19T18:38:54.858Z,100505.17
2018-09-19T18:41:23.572Z,100506.19
2018-09-19T18:43:53.043Z,100508.70
2018-09-19T18:46:23.466Z,100507.67
2018-09-19T18:48:52.115Z,100506.13
2018-09-19T18:51:20.812Z,100508.83
2018-09-19T18:53:49.437Z,100512.38
2018-09-19T18:56:19.220Z,100519.48
2018-09-19T18:58:48.052Z,100516.61
2018-09-19T19:01:16.469Z,100516.11
2018-09-19T19:03:45.273Z,100518.25
2018-09-19T19:06:14.916Z,100521.09
2018-09-19T19:08:44.907Z,100519.38
2018-09-19T19:11:15.066Z,100521.35
2018-09-19T19:13:46.919Z,100516.33
2018-09-19T19:16:16.624Z,100514.16
2018-09-19T19:18:48.418Z,100521.45
2018-09-19T19:21:17.160Z,100516.81
2018-09-19T19:23:47.093Z,100517.86
2018-09-19T19:26:16.241Z,100517.80
2018-09-19T19:28:44.953Z,100519.34
2018-09-19T19:31:13.810Z,100523.45
2018-09-19T19:33:43.840Z,100521.83
2018-09-19T19:36:13.042Z,100523.91
2018-09-19T19:38:41.730Z,100529.19
2018-09-19T19:41:10.413Z,100531.46
2018-09-19T19:43:39.128Z,100528.61
2018-09-19T19:46:07.818Z,100529.82
2018-09-19T19:48:36.567Z,100531.48
2018-09-19T19:51:05.220Z,100532.83
2018-09-19T19:53:34.017Z,100533.78
2018-09-19T19:56:02.811Z,100530.22
2018-09-19T19:58:31.708Z,100529.95
2018-09-19T20:01:00.486Z,100534.17
2018-09-19T20:03:29.193Z,100532.79
2018-09-19T20:05:58.063Z,100528.83
2018-09-19T20:08:26.741Z,100528.17
2018-09-19T20:10:55.451Z,100535.35
2018-09-19T20:13:24.115Z,100530.97
2018-09-19T20:15:53.059Z,100540.56
2018-09-19T20:18:21.487Z,100531.50
2018-09-19T20:20:49.908Z,100535.27
2018-09-19T20:23:18.540Z,100536.66
2018-09-19T20:25:47.278Z,100535.18
2018-09-19T20:28:15.965Z,100534.23
2018-09-19T20:30:44.603Z,100534.05
2018-09-19T20:33:13.132Z,100529.44
2018-09-19T20:35:44.179Z,100530.73
2018-09-19T20:38:17.533Z,100530.35
2018-09-19T20:40:52.704Z,100532.59
2018-09-19T20:43:26.721Z,100538.84
2018-09-19T20:46:02.344Z,100541.45
2018-09-19T20:48:37.064Z,100539.33
2018-09-19T20:51:09.400Z,100544.27
2018-09-19T20:53:41.451Z,100544.71
2018-09-19T20:56:14.277Z,100548.00
2018-09-19T20:58:42.770Z,100549.00
2018-09-19T21:01:11.415Z,100552.91
2018-09-19T21:03:39.907Z,100555.16
2018-09-19T21:06:08.376Z,100552.58
2018-09-19T21:08:37.354Z,100554.80
2018-09-19T21:11:06.046Z,100554.99
2018-09-19T21:13:34.626Z,100558.33
2018-09-19T21:16:03.099Z,100556.20
2018-09-19T21:18:31.615Z,100560.58
2018-09-19T21:21:00.108Z,100559.45
2018-09-19T21:23:28.718Z,100561.70
2018-09-19T21:25:57.215Z,100567.55
2018-09-19T21:28:25.734Z,100569.63
2018-09-19T21:30:54.410Z,100581.89
2018-09-19T21:33:22.882Z,100580.03
2018-09-19T21:35:51.581Z,100579.59
2018-09-19T21:38:20.024Z,100582.09
2018-09-19T21:40:48.515Z,100585.83
2018-09-19T21:43:17.311Z,100583.97
2018-09-19T21:45:46.808Z,100581.17
2018-09-19T21:48:15.309Z,100586.58
2018-09-19T21:50:43.777Z,100592.70
2018-09-19T21:53:12.272Z,100595.85
2018-09-19T21:55:40.724Z,100595.10
2018-09-19T21:58:09.195Z,100603.85
2018-09-19T22:00:37.731Z,100609.84
2018-09-19T22:03:06.404Z,100615.73
2018-09-19T22:05:34.857Z,100614.56
2018-09-19T22:08:03.377Z,100620.78
2018-09-19T22:10:31.932Z,100621.14
2018-09-19T22:13:00.493Z,100621.27
2018-09-19T22:15:29.046Z,100618.67
2018-09-19T22:17:57.475Z,100624.70
2018-09-19T22:20:25.974Z,100624.03
2018-09-19T22:22:54.565Z,100629.00
2018-09-19T22:25:23.096Z,100624.22
2018-09-19T22:27:51.588Z,100628.11
2018-09-19T22:30:20.375Z,100628.16
2018-09-19T22:32:48.765Z,100631.55
2018-09-19T22:35:17.152Z,100637.69
2018-09-19T22:37:45.580Z,100635.47
2018-09-19T22:40:14.038Z,100644.54
2018-09-19T22:42:42.747Z,100650.75
2018-09-19T22:45:11.238Z,100653.77
2018-09-19T22:47:40.859Z,100651.81
2018-09-19T22:50:09.367Z,100649.43
2018-09-19T22:52:38.217Z,100649.25
2018-09-19T22:55:06.839Z,100648.56
2018-09-19T22:57:35.328Z,100651.95
2018-09-19T23:00:03.772Z,100658.53
2018-09-19T23:02:32.803Z,100661.38
2018-09-19T23:05:01.281Z,100668.13
2018-09-19T23:07:29.772Z,100664.91
2018-09-19T23:09:58.536Z,100667.28
2018-09-19T23:12:27.409Z,100667.77
2018-09-19T23:14:55.906Z,100665.49
2018-09-19T23:17:24.393Z,100672.52
2018-09-19T23:19:52.870Z,100666.55
2018-09-19T23:22:21.414Z,100673.89
2018-09-19T23:24:49.819Z,100674.75
2018-09-19T23:27:19.012Z,100673.52
2018-09-19T23:29:47.586Z,100680.31
2018-09-19T23:32:16.065Z,100684.74
2018-09-19T23:34:44.526Z,100684.91
2018-09-19T23:37:13.003Z,100687.27
2018-09-19T23:39:41.511Z,100682.67
2018-09-19T23:42:10.884Z,100686.36
2018-09-19T23:44:39.388Z,100689.34
2018-09-19T23:47:08.460Z,100686.36
2018-09-19T23:49:36.998Z,100694.55
2018-09-19T23:52:05.591Z,100689.45
2018-09-19T23:54:35.150Z,100694.89
2018-09-19T23:57:04.088Z,100690.02
2018-09-19T23:59:32.605Z,100686.27
